Tropical Cyclones
[Index]
Main Index Home Page Stock Weather Photos Extreme Storms Discussion Storm News and Storm Chasing Reports Tropical Cyclones / Hurricanes / Typhoons Weather Data and Links Wild Fires / Bushfires Weather Observation Techniques Weather Picture Catalogue Tornado Pictures and Reports Stock Video Footage and DVDs for sale
Season 1995-1996 Tropical Cyclone BETI Track Map
Season 1995-1996 Summaries: [BoM-AU] [JTWC-AU] [JTWC-SIO] [JTWC-SPAC] [JTWC-SH]
<<- Previous TC | JTWC 1995-1996 Season | Next TC ->>

click for intensity scale information  Lat/long Grid: Show Hide

 Date Labels: Show Hide

Joint Typhoon Warning Centre Cyclone Data

Name: BETI

19 Mar 1996 06:00 UTC to 30 Mar 1996 06:00 UTC

    date/time    lat    long     hPa   cat  kts
1996-03-19 06   11.9   169.9                  15          
1996-03-19 12   12.0   170.1                  15          
1996-03-19 18   12.1   170.3                  15          
1996-03-20 00   12.2   170.5                  20          
1996-03-20 06   12.3   170.5                  20          
1996-03-20 12   12.4   170.5                  20          
1996-03-20 18   12.5   170.3                  25          
1996-03-21 00   12.5   170.0                  25          
1996-03-21 06   12.5   169.8                  25          
1996-03-21 12   12.6   169.5                  25          
1996-03-21 18   12.7   169.3                  25          
1996-03-22 00   12.8   169.4                  25          
1996-03-22 06   13.0   169.6                  30          
1996-03-22 12   13.3   169.9                  30          
1996-03-22 18   13.8   170.0                  30          
1996-03-23 00   14.4   170.0                  35          
1996-03-23 06   15.1   169.8                  35          
1996-03-23 12   15.6   169.6                  35          
1996-03-23 18   16.0   169.1            1     40          
1996-03-24 00   16.1   168.5            1     45          
1996-03-24 06   16.2   167.9            2     55          
1996-03-24 12   16.4   167.3            2     55          
1996-03-24 18   16.7   166.6            3     75          
1996-03-25 00   16.9   165.9            2     65          
1996-03-25 06   17.1   165.3            2     70          
1996-03-25 12   17.3   164.7            3     75          
1996-03-25 18   17.6   164.3            3     80          
1996-03-26 00   18.0   164.1            3     90          
1996-03-26 06   18.4   164.1            3     95          
1996-03-26 12   18.9   164.3            4    100          
1996-03-26 18   19.6   164.7            4    105          
1996-03-27 00   20.5   165.3            4    105          
1996-03-27 06   21.5   165.8            4    100          
1996-03-27 12   22.1   166.1            4    105          
1996-03-27 18   23.2   166.8            3     95          
1996-03-28 00   24.2   167.6            3     75          
1996-03-28 06   25.2   168.4            2     65          
1996-03-28 12   26.1   169.2            2     55          
1996-03-28 18   27.2   170.6            1     45          
1996-03-29 00   28.3   172.1            1     40          
1996-03-29 06   29.6   173.8                  35          
1996-03-29 12   30.8   175.5                  30          
1996-03-29 18   31.7   177.2                  25          
1996-03-30 00   32.5   179.0                  25          
1996-03-30 06   33.2   179.2W                 20          
Winds are 1-min average.

Tropical cyclone tracks developed by Michael Bath using data from the Joint Typhoon Warning Centre Best Tracks and Google Maps.


[Australian Severe Weather index] [Copyright Notice] [Email Contacts] [Search This Site] [Privacy Policy]
Document: tropical_cyclone_beti.htm Updated: 18 September 2016